Time;durP1;ratioP1;P1;durP2;ratioP2;P2;SDS_P1;SDS_P2;PMS_P1;PMS_P2;Temp;Humidity;BMP_temperature;BMP_pressure;BME280_temperature;BME280_humidity;BME280_pressure;Samples;Min_cycle;Max_cycle;Signal;HPM_P1;HPM_P2
2023/04/30 00:01:58;;;;;;;8.38;3.40;;;5.90;99.90;;;5.96;100.00;101481.94;5091637;28;20130;-75
2023/04/30 00:04:24;;;;;;;11.20;4.10;;;5.90;99.90;;;5.92;100.00;101476.00;5089509;28;20584;-75
2023/04/30 00:06:49;;;;;;;10.13;3.85;;;5.90;99.90;;;5.96;100.00;101471.94;5095054;28;20039;-74
2023/04/30 00:09:15;;;;;;;12.52;3.75;;;5.90;99.90;;;5.95;100.00;101474.81;5070928;28;20040;-75
2023/04/30 00:11:41;;;;;;;12.43;3.60;;;5.90;99.90;;;5.92;100.00;101472.44;5095066;28;20058;-75
2023/04/30 00:14:07;;;;;;;12.77;3.83;;;5.80;99.90;;;5.86;100.00;101474.81;5095285;28;20032;-75
2023/04/30 00:16:32;;;;;;;10.43;3.45;;;5.60;99.90;;;5.75;100.00;101489.50;5040246;28;20040;-74
2023/04/30 00:18:58;;;;;;;10.43;3.30;;;5.40;99.90;;;5.53;100.00;101482.81;5065673;28;20399;-75
2023/04/30 00:21:24;;;;;;;8.70;3.58;;;5.20;99.90;;;5.33;100.00;101480.38;5062558;28;20035;-74
2023/04/30 00:23:49;;;;;;;16.77;4.35;;;5.00;99.90;;;5.23;100.00;101497.72;5076464;28;20039;-75
2023/04/30 00:26:15;;;;;;;11.68;4.43;;;4.80;99.90;;;5.25;100.00;101498.41;5085077;28;20036;-75
2023/04/30 00:28:45;;;;;;;9.20;3.95;;;4.80;99.90;;;5.26;100.00;101503.66;5089727;28;20127;-75
2023/04/30 00:31:10;;;;;;;15.65;5.13;;;4.80;99.90;;;5.14;100.00;101497.66;5067214;28;20365;-75
2023/04/30 00:33:36;;;;;;;12.02;4.38;;;4.80;99.90;;;5.11;100.00;101503.41;5054779;28;20517;-75
2023/04/30 00:36:02;;;;;;;10.68;4.70;;;4.80;99.90;;;5.09;100.00;101510.81;5063037;28;20032;-75
2023/04/30 00:38:28;;;;;;;15.52;4.32;;;4.80;99.90;;;5.08;100.00;101508.31;5061902;28;20036;-75
2023/04/30 00:40:53;;;;;;;9.05;4.50;;;4.90;99.90;;;5.24;100.00;101508.38;5058005;28;20036;-75
2023/04/30 00:43:19;;;;;;;11.10;4.55;;;4.90;99.90;;;5.24;100.00;101518.38;5058488;28;20032;-75
2023/04/30 00:45:45;;;;;;;12.02;4.43;;;4.90;99.90;;;5.24;100.00;101519.19;5071065;28;20052;-76
2023/04/30 00:48:11;;;;;;;15.15;4.05;;;5.00;99.90;;;5.27;100.00;101513.47;5057610;28;20041;-75
2023/04/30 00:50:37;;;;;;;14.50;4.10;;;5.00;99.90;;;5.21;100.00;101510.56;5084818;28;20092;-75
2023/04/30 00:53:03;;;;;;;9.02;3.60;;;5.00;99.90;;;5.23;100.00;101516.66;5075509;28;20071;-75
2023/04/30 00:55:29;;;;;;;11.75;4.40;;;5.10;99.90;;;5.28;100.00;101519.75;5069188;28;20040;-75
2023/04/30 00:57:55;;;;;;;10.38;4.50;;;5.10;99.90;;;5.26;100.00;101517.19;5066160;28;20664;-75
2023/04/30 01:00:21;;;;;;;11.25;3.70;;;5.10;99.90;;;5.33;100.00;101523.66;5093442;28;20080;-76
2023/04/30 01:02:48;;;;;;;10.73;3.95;;;5.20;99.90;;;5.34;100.00;101524.50;5072262;28;20491;-75
2023/04/30 01:05:14;;;;;;;9.50;4.15;;;5.20;99.90;;;5.40;100.00;101528.44;5063910;28;20119;-75
2023/04/30 01:07:45;;;;;;;10.88;4.00;;;5.10;99.90;;;5.32;100.00;101518.41;5092152;28;20036;-75
2023/04/30 01:10:15;;;;;;;10.40;4.45;;;5.00;99.90;;;5.25;100.00;101501.94;5056578;28;20471;-75
2023/04/30 01:12:57;;;;;;;13.55;4.32;;;5.20;99.90;;;5.27;100.00;101531.56;5057646;28;20495;-75
2023/04/30 01:15:44;;;;;;;10.80;3.88;;;5.10;99.90;;;5.29;100.00;101524.97;5050472;28;20086;-75
2023/04/30 01:18:26;;;;;;;9.65;3.90;;;5.10;99.90;;;5.22;100.00;101529.34;5062105;28;20024;-75
2023/04/30 01:21:04;;;;;;;11.05;3.95;;;5.10;99.90;;;5.20;100.00;101539.47;5057467;28;20131;-75
2023/04/30 01:24:14;;;;;;;10.70;4.03;;;5.10;99.90;;;5.15;100.00;101531.81;5057572;28;20025;-75
2023/04/30 01:26:59;;;;;;;11.18;4.10;;;5.00;99.90;;;5.01;100.00;101538.66;5057815;28;20067;-75
2023/04/30 01:29:28;;;;;;;11.30;4.00;;;4.90;99.90;;;4.97;100.00;101540.00;5064484;28;20202;-75
2023/04/30 01:31:53;;;;;;;11.20;4.20;;;4.90;99.90;;;4.93;100.00;101533.19;5057969;28;20040;-76
2023/04/30 01:34:19;;;;;;;12.57;4.30;;;4.80;99.90;;;4.95;100.00;101536.59;5065329;28;20078;-75
2023/04/30 01:37:19;;;;;;;12.10;4.70;;;4.70;99.90;;;4.91;100.00;101543.34;5087522;28;20043;-75
2023/04/30 01:40:08;;;;;;;18.08;4.75;;;4.60;99.90;;;4.80;100.00;101540.88;5084978;28;20040;-75
2023/04/30 01:42:44;;;;;;;;;;;4.50;99.90;;;4.67;100.00;101544.81;5048883;28;20052;-75
2023/04/30 01:45:48;;;;;;;14.18;4.28;;;4.40;99.90;;;4.63;100.00;101521.81;5064841;28;19916;-75
2023/04/30 01:48:45;;;;;;;15.27;4.70;;;4.40;99.90;;;4.53;100.00;101516.50;5084215;28;20024;-75
2023/04/30 01:51:28;;;;;;;13.05;6.47;;;4.40;99.90;;;4.61;100.00;101546.28;5066473;28;20032;-75
2023/04/30 01:54:01;;;;;;;9.30;4.50;;;4.30;99.90;;;4.57;100.00;101552.19;5092323;28;20106;-75
2023/04/30 01:56:38;;;;;;;15.40;4.72;;;4.30;99.90;;;4.59;100.00;101547.47;5067701;28;20411;-75
2023/04/30 01:59:04;;;;;;;11.77;4.93;;;4.30;99.90;;;4.57;100.00;101550.31;5087725;28;20075;-75
2023/04/30 02:01:32;;;;;;;12.07;4.53;;;4.30;99.90;;;4.56;100.00;101558.59;5073689;28;20039;-75
2023/04/30 02:03:59;;;;;;;13.13;4.80;;;4.30;99.90;;;4.58;100.00;101557.41;5092279;28;20036;-75
2023/04/30 02:06:27;;;;;;;11.43;4.05;;;4.30;99.90;;;4.53;100.00;101558.91;5070682;28;20081;-75
2023/04/30 02:08:54;;;;;;;11.85;4.47;;;4.10;99.90;;;4.37;100.00;101552.31;5063358;28;20349;-75
2023/04/30 02:11:20;;;;;;;13.50;4.60;;;4.00;99.90;;;4.30;100.00;101556.66;5072408;28;20381;-75
2023/04/30 02:13:46;;;;;;;12.50;4.93;;;3.90;99.90;;;4.21;100.00;101557.53;5060276;28;20514;-75
2023/04/30 02:16:11;;;;;;;10.77;4.80;;;3.90;99.90;;;4.27;100.00;101555.09;5058922;28;20029;-75
2023/04/30 02:18:37;;;;;;;12.45;4.50;;;4.00;99.90;;;4.29;100.00;101565.75;5067695;28;20029;-75
2023/04/30 02:21:03;;;;;;;11.52;4.80;;;4.10;99.90;;;4.31;100.00;101552.94;5055506;28;20484;-75
2023/04/30 02:23:29;;;;;;;12.73;4.30;;;4.10;99.90;;;4.47;100.00;101558.50;5079989;28;20488;-75
2023/04/30 02:25:54;;;;;;;11.85;4.22;;;4.20;99.90;;;4.41;100.00;101561.00;5086627;28;20203;-75
2023/04/30 02:28:20;;;;;;;11.75;4.88;;;4.00;99.90;;;4.23;100.00;101552.84;5086287;28;20040;-75
2023/04/30 02:30:46;;;;;;;10.27;4.50;;;3.80;99.90;;;4.15;100.00;101557.16;5083869;28;20043;-75
2023/04/30 02:33:11;;;;;;;11.68;4.20;;;3.70;99.90;;;4.00;100.00;101564.09;5080419;28;20566;-75
2023/04/30 02:35:40;;;;;;;12.55;5.00;;;3.60;99.90;;;3.88;100.00;101561.56;5091447;28;20085;-75
2023/04/30 02:38:05;;;;;;;16.88;5.00;;;3.40;99.90;;;3.79;100.00;101554.41;5089784;28;20059;-75
2023/04/30 02:40:31;;;;;;;9.18;4.22;;;3.30;99.90;;;3.59;100.00;101559.88;5085852;28;20076;-75
2023/04/30 02:42:57;;;;;;;9.00;4.07;;;3.10;99.90;;;3.37;100.00;101552.13;5059700;28;20040;-75
2023/04/30 02:45:23;;;;;;;7.15;3.85;;;2.90;99.90;;;3.30;100.00;101568.91;5074116;28;20078;-75
2023/04/30 02:47:49;;;;;;;12.52;4.35;;;2.80;99.90;;;3.19;100.00;101557.44;5084634;28;20145;-74
2023/04/30 02:50:15;;;;;;;12.65;4.72;;;2.70;99.90;;;3.09;100.00;101565.56;5091146;28;20032;-75
2023/04/30 02:52:40;;;;;;;11.40;4.65;;;2.60;99.90;;;2.86;100.00;101555.09;5062937;28;20085;-74
2023/04/30 02:55:07;;;;;;;14.50;5.07;;;2.50;99.90;;;2.88;100.00;101567.44;5086026;28;20040;-75
2023/04/30 02:57:32;;;;;;;15.02;4.82;;;2.50;99.90;;;2.80;100.00;101564.63;5070828;28;20051;-75
2023/04/30 02:59:58;;;;;;;12.63;5.15;;;2.40;99.90;;;2.73;100.00;101568.84;5078840;28;20044;-75
2023/04/30 03:02:24;;;;;;;14.70;5.38;;;2.30;99.90;;;2.76;100.00;101578.50;5064251;28;20032;-74
2023/04/30 03:04:50;;;;;;;11.60;5.22;;;2.40;99.90;;;2.81;100.00;101579.78;5091280;28;20399;-74
2023/04/30 03:07:16;;;;;;;11.77;5.53;;;2.40;99.90;;;2.85;100.00;101580.34;5071185;28;20024;-74
2023/04/30 03:09:42;;;;;;;12.90;5.95;;;2.40;99.90;;;2.88;100.00;101582.75;5059847;28;20445;-74
2023/04/30 03:12:08;;;;;;;15.13;5.75;;;2.50;99.90;;;2.80;100.00;101578.09;5061067;28;20078;-75
2023/04/30 03:14:34;;;;;;;14.98;5.20;;;2.40;99.90;;;2.74;100.00;101578.63;5077716;28;20040;-75
2023/04/30 03:17:00;;;;;;;13.57;6.30;;;2.40;99.90;;;2.77;100.00;101591.00;5038511;28;20044;-74
2023/04/30 03:19:27;;;;;;;15.10;6.30;;;2.40;99.90;;;2.77;100.00;101581.03;5054149;28;20031;-74
2023/04/30 03:21:54;;;;;;;10.02;5.30;;;2.30;99.90;;;2.88;100.00;101580.06;5083833;28;20297;-75
2023/04/30 03:24:19;;;;;;;13.82;5.85;;;2.40;99.90;;;2.90;100.00;101585.31;5088968;28;20068;-75
2023/04/30 03:26:46;;;;;;;15.23;6.10;;;2.50;99.90;;;2.79;100.00;101587.19;5085396;28;20048;-74
2023/04/30 03:29:12;;;;;;;13.85;6.95;;;2.40;99.90;;;2.72;100.00;101591.41;5087513;28;20487;-75
2023/04/30 03:31:37;;;;;;;14.90;6.38;;;2.40;99.90;;;2.57;100.00;101574.81;5082652;28;20036;-74
2023/04/30 03:34:03;;;;;;;13.65;5.72;;;2.30;99.90;;;2.54;100.00;101588.56;5085905;28;20036;-74
2023/04/30 03:36:29;;;;;;;11.27;6.15;;;2.20;99.90;;;2.46;100.00;101581.19;5054764;28;20039;-74
2023/04/30 03:38:54;;;;;;;13.85;5.72;;;2.10;99.90;;;2.35;100.00;101571.38;5056284;28;20445;-74
2023/04/30 03:41:20;;;;;;;13.50;6.25;;;2.10;99.90;;;2.26;100.00;101591.09;5084230;28;20096;-74
2023/04/30 03:43:46;;;;;;;11.40;6.10;;;2.00;99.90;;;2.19;100.00;101592.63;5059678;28;20039;-74
2023/04/30 03:46:11;;;;;;;9.77;5.57;;;1.90;99.90;;;2.07;100.00;101592.75;5068032;28;20043;-74
2023/04/30 03:48:37;;;;;;;12.18;6.20;;;1.80;99.90;;;2.01;100.00;101587.91;5088210;28;20048;-74
2023/04/30 03:51:03;;;;;;;14.63;6.55;;;1.80;99.90;;;2.13;100.00;101594.91;5054718;28;20077;-74
2023/04/30 03:53:28;;;;;;;14.00;6.85;;;1.80;99.90;;;2.13;100.00;101600.28;5055061;28;20446;-74
2023/04/30 03:55:55;;;;;;;15.80;6.40;;;1.80;99.90;;;2.08;100.00;101594.44;5056242;28;20036;-74
2023/04/30 03:58:21;;;;;;;15.57;6.35;;;1.80;99.90;;;2.00;100.00;101602.38;5057111;28;20383;-74
2023/04/30 04:00:47;;;;;;;11.48;6.10;;;1.70;99.90;;;2.03;100.00;101612.00;5082587;28;20040;-74
2023/04/30 04:03:15;;;;;;;12.27;6.28;;;1.70;99.90;;;1.94;100.00;101601.06;5056629;28;20107;-74
2023/04/30 04:05:41;;;;;;;14.82;6.40;;;1.70;99.90;;;1.98;100.00;101621.31;5058954;28;20036;-74
2023/04/30 04:08:07;;;;;;;11.95;6.38;;;1.60;99.90;;;2.04;100.00;101619.94;5074195;28;20035;-74
2023/04/30 04:10:34;;;;;;;13.32;6.68;;;1.60;99.90;;;2.03;100.00;101622.78;5054925;28;20496;-74
2023/04/30 04:13:00;;;;;;;11.55;6.82;;;1.70;99.90;;;1.97;100.00;101622.31;5040649;28;20028;-74
2023/04/30 04:15:26;;;;;;;16.48;7.15;;;1.70;99.90;;;2.08;100.00;101626.75;5056699;28;20044;-74
2023/04/30 04:17:52;;;;;;;15.98;8.27;;;1.60;99.90;;;2.15;100.00;101624.38;5064735;28;20078;-74
2023/04/30 04:20:18;;;;;;;19.05;7.53;;;1.70;99.90;;;2.24;100.00;101623.53;5058662;28;20062;-74
2023/04/30 04:22:44;;;;;;;15.32;7.60;;;1.80;99.90;;;2.29;100.00;101633.91;5053745;28;20530;-74
2023/04/30 04:25:10;;;;;;;17.83;7.50;;;1.90;99.90;;;2.22;100.00;101632.75;5050952;28;20028;-74
2023/04/30 04:27:36;;;;;;;16.42;7.28;;;1.90;99.90;;;2.30;100.00;101633.78;5087601;28;20129;-74
2023/04/30 04:30:03;;;;;;;17.48;7.28;;;1.90;99.90;;;2.30;100.00;101630.22;5070473;28;20036;-74
2023/04/30 04:32:29;;;;;;;15.23;7.30;;;1.90;99.90;;;2.25;100.00;101624.41;5080778;28;20042;-74
2023/04/30 04:34:55;;;;;;;23.95;8.43;;;1.90;99.90;;;2.42;100.00;101639.03;5070887;28;20089;-74
2023/04/30 04:37:21;;;;;;;15.60;7.95;;;2.00;99.90;;;2.56;100.00;101643.16;5083608;28;20036;-74
2023/04/30 04:39:47;;;;;;;14.13;7.68;;;2.10;99.90;;;2.55;100.00;101641.47;5053497;28;20040;-74
2023/04/30 04:42:16;;;;;;;19.50;8.43;;;2.10;99.90;;;2.61;100.00;101635.50;5054840;28;20533;-74
2023/04/30 04:44:42;;;;;;;18.02;8.30;;;2.10;99.90;;;2.59;100.00;101632.97;5058689;28;20400;-74
2023/04/30 04:47:09;;;;;;;20.05;8.63;;;2.20;99.90;;;2.71;100.00;101640.91;5088835;28;20040;-74
2023/04/30 04:49:35;;;;;;;15.13;7.68;;;2.20;99.90;;;2.82;100.00;101642.63;5090542;28;20076;-75
2023/04/30 04:52:01;;;;;;;17.30;7.82;;;2.30;99.90;;;2.87;100.00;101648.44;5062927;28;20499;-74
2023/04/30 04:54:27;;;;;;;15.98;8.15;;;2.40;99.90;;;2.92;100.00;101646.19;5057710;28;20371;-74
2023/04/30 04:56:53;;;;;;;14.23;8.10;;;2.50;99.90;;;2.99;100.00;101651.84;5093508;28;20105;-74
2023/04/30 04:59:18;;;;;;;18.98;8.80;;;2.50;99.90;;;3.01;100.00;101650.72;5073802;28;20040;-74
2023/04/30 05:01:45;;;;;;;16.50;8.07;;;2.60;99.90;;;3.15;100.00;101662.06;5073275;28;20143;-74
2023/04/30 05:04:12;;;;;;;19.27;9.25;;;2.70;99.90;;;3.27;100.00;101670.84;5059170;28;20029;-74
2023/04/30 05:06:38;;;;;;;21.60;9.40;;;2.70;99.90;;;3.39;100.00;101666.16;5061830;28;20040;-74
2023/04/30 05:09:07;;;;;;;18.67;9.63;;;2.80;99.90;;;3.37;100.00;101646.56;5084977;28;20365;-75
2023/04/30 05:11:33;;;;;;;20.95;10.30;;;2.90;99.90;;;3.55;100.00;101663.72;5074493;28;20124;-74
2023/04/30 05:13:59;;;;;;;23.63;9.48;;;3.00;99.90;;;3.66;100.00;101669.94;5055319;28;20099;-74
2023/04/30 05:16:25;;;;;;;19.25;9.13;;;3.20;99.90;;;3.81;100.00;101667.59;5084964;28;20039;-74
2023/04/30 05:18:51;;;;;;;19.38;10.18;;;3.30;99.90;;;3.90;100.00;101664.03;5092569;28;20047;-75
2023/04/30 05:21:16;;;;;;;27.13;10.13;;;3.40;99.90;;;4.15;100.00;101673.31;5086123;28;20039;-74
2023/04/30 05:23:43;;;;;;;25.08;10.32;;;3.50;99.90;;;4.31;100.00;101674.53;5070904;28;20081;-74
2023/04/30 05:26:09;;;;;;;25.52;10.95;;;3.70;99.90;;;4.40;100.00;101668.19;5072190;28;20391;-74
2023/04/30 05:28:35;;;;;;;25.05;10.82;;;3.80;99.90;;;4.60;100.00;101678.91;5061108;28;20043;-74
2023/04/30 05:31:01;;;;;;;22.98;11.02;;;4.00;99.90;;;4.77;100.00;101681.75;5086721;28;20077;-74
2023/04/30 05:33:26;;;;;;;24.10;11.38;;;4.10;99.90;;;4.85;100.00;101681.88;5058059;28;20376;-74
2023/04/30 05:35:55;;;;;;;27.52;11.43;;;4.30;99.90;;;5.08;100.00;101684.13;5090630;28;20071;-77
2023/04/30 05:38:24;;;;;;;34.63;11.45;;;4.40;99.90;;;5.05;100.00;101677.16;5091700;28;21795;-74
2023/04/30 05:40:50;;;;;;;27.70;11.45;;;4.60;99.90;;;5.14;100.00;101680.78;5091324;28;20040;-75
2023/04/30 05:43:16;;;;;;;24.08;11.40;;;4.70;99.90;;;5.37;100.00;101691.13;5092105;28;20039;-74
2023/04/30 05:45:41;;;;;;;26.92;10.43;;;4.70;99.90;;;5.55;100.00;101697.34;5091544;28;20365;-74
2023/04/30 05:48:07;;;;;;;24.25;10.20;;;4.80;99.90;;;5.67;100.00;101686.28;5059255;28;20085;-74
2023/04/30 05:50:33;;;;;;;19.85;8.93;;;5.00;99.90;;;5.70;100.00;101685.94;5062379;28;20032;-75
2023/04/30 05:52:59;;;;;;;25.30;9.10;;;5.10;99.90;;;5.66;100.00;101687.28;5079930;28;20419;-75
2023/04/30 05:55:25;;;;;;;19.25;8.02;;;5.10;99.90;;;5.95;100.00;101684.22;5084140;28;20036;-75
2023/04/30 05:57:50;;;;;;;17.25;7.30;;;5.20;99.90;;;6.18;100.00;101686.41;5056471;28;20040;-76
2023/04/30 06:00:16;;;;;;;18.25;7.07;;;5.30;99.90;;;6.11;100.00;101648.31;5091576;28;20031;-75
2023/04/30 06:02:42;;;;;;;15.77;6.78;;;5.60;99.90;;;6.52;100.00;101668.41;5088977;28;20041;-75
2023/04/30 06:05:08;;;;;;;13.50;6.30;;;5.70;99.90;;;6.74;100.00;101678.66;5081376;28;20035;-75
2023/04/30 06:07:34;;;;;;;12.75;5.72;;;5.90;99.90;;;6.86;100.00;101684.59;5084052;28;20044;-75
2023/04/30 06:09:59;;;;;;;14.73;6.07;;;6.00;99.90;;;6.89;100.00;101664.41;5085294;28;20036;-75
2023/04/30 06:12:25;;;;;;;15.25;5.68;;;6.20;99.90;;;7.23;100.00;101678.88;5055996;28;20036;-75
2023/04/30 06:14:51;;;;;;;11.32;5.50;;;6.40;99.90;;;7.38;100.00;101673.59;5066902;28;20090;-75
2023/04/30 06:17:17;;;;;;;10.80;4.45;;;6.60;99.90;;;7.36;100.00;101659.34;5087205;28;20145;-75
2023/04/30 06:19:43;;;;;;;13.15;4.75;;;6.70;99.90;;;7.49;100.00;101670.56;5085520;28;20115;-74
2023/04/30 06:22:08;;;;;;;14.88;4.00;;;6.80;99.90;;;7.57;99.48;101656.97;5083931;28;20162;-75
2023/04/30 06:24:34;;;;;;;12.65;4.22;;;7.00;99.90;;;7.76;96.60;101650.28;5078147;28;20040;-75
2023/04/30 06:27:00;;;;;;;11.73;3.75;;;7.10;99.90;;;7.89;96.17;101666.06;5058067;28;20040;-75
2023/04/30 06:29:26;;;;;;;16.20;4.10;;;7.20;99.90;;;7.75;92.20;101662.19;5085629;28;20066;-75
2023/04/30 06:31:51;;;;;;;8.77;4.03;;;7.30;99.90;;;8.05;nan;101661.59;5088186;28;20407;-75
2023/04/30 06:34:19;;;;;;;17.02;4.47;;;7.40;99.90;;;8.04;89.68;101665.34;5086407;28;20044;-75
2023/04/30 06:36:45;;;;;;;16.92;4.00;;;7.50;99.90;;;7.96;88.86;101649.06;5091410;28;20074;-75
2023/04/30 06:39:15;;;;;;;13.00;3.58;;;7.60;99.90;;;8.13;88.82;101658.00;5058383;28;20044;-75
2023/04/30 06:41:41;;;;;;;10.43;3.28;;;7.70;99.90;;;8.19;89.09;101654.59;5051305;28;20050;-76
2023/04/30 06:44:08;;;;;;;15.38;4.43;;;7.80;99.90;;;8.37;86.62;101650.78;5059660;28;20436;-75
2023/04/30 06:46:34;;;;;;;11.38;3.50;;;7.90;99.90;;;8.41;86.14;101643.94;5071672;28;20040;-75
2023/04/30 06:49:00;;;;;;;11.00;3.00;;;8.00;99.90;;;8.37;83.42;101645.34;5083673;28;20035;-75
2023/04/30 06:51:26;;;;;;;10.50;3.05;;;8.10;99.90;;;8.31;80.81;101641.44;5084673;28;20027;-75
2023/04/30 06:53:52;;;;;;;9.82;3.33;;;8.10;99.90;;;8.32;83.60;101643.13;5069946;28;20392;-76
2023/04/30 06:56:18;;;;;;;17.17;3.42;;;8.20;99.90;;;8.29;82.17;101633.44;5055255;28;20032;-76
2023/04/30 06:58:44;;;;;;;12.82;3.53;;;8.30;99.90;;;8.20;79.85;101621.75;5076122;28;20029;-74
2023/04/30 07:01:09;;;;;;;13.50;3.45;;;8.30;99.90;;;8.56;79.72;101644.06;5085968;28;20444;-76
2023/04/30 07:03:35;;;;;;;9.70;3.10;;;8.40;99.90;;;8.46;78.86;101633.38;5086791;28;20036;-74
2023/04/30 07:06:01;;;;;;;12.85;2.90;;;8.40;99.90;;;8.53;77.01;101636.28;5090341;28;20052;-74
2023/04/30 07:08:27;;;;;;;12.40;3.28;;;8.50;99.90;;;8.86;76.21;101638.78;5082811;28;20111;-74
2023/04/30 07:10:52;;;;;;;10.00;3.00;;;8.60;99.90;;;8.92;73.31;101638.03;5071447;28;20075;-74
2023/04/30 07:13:18;;;;;;;14.80;3.53;;;8.70;99.90;;;8.88;76.64;101651.16;5084228;28;20038;-75
2023/04/30 07:15:44;;;;;;;11.27;2.63;;;8.70;99.90;;;9.03;73.20;101634.03;5082698;28;20407;-76
2023/04/30 07:18:10;;;;;;;12.15;3.95;;;8.80;99.90;;;9.19;77.90;101665.72;5085874;28;20055;-76
2023/04/30 07:20:35;;;;;;;10.95;3.60;;;9.00;99.90;;;9.30;74.39;101657.16;5066685;28;20076;-75
2023/04/30 07:23:01;;;;;;;12.98;3.35;;;9.00;99.90;;;9.44;70.94;101662.78;5089820;28;20032;-76
2023/04/30 07:25:27;;;;;;;10.93;3.15;;;9.10;99.90;;;9.41;68.48;101649.56;5057113;28;20554;-75
2023/04/30 07:27:54;;;;;;;14.15;3.75;;;9.10;99.90;;;9.52;71.89;101659.16;5090292;28;20043;-75
2023/04/30 07:30:21;;;;;;;13.27;3.55;;;9.20;99.90;;;8.92;71.66;101662.53;5090788;28;20544;-74
2023/04/30 07:32:47;;;;;;;11.18;3.50;;;9.10;99.90;;;8.85;69.40;101643.34;5089814;28;20195;-75
2023/04/30 07:35:13;;;;;;;14.70;3.50;;;9.20;99.90;;;9.05;68.35;101653.75;5061271;28;20116;-75
2023/04/30 07:37:40;;;;;;;9.93;3.10;;;9.30;99.90;;;9.52;69.62;101646.38;5085199;28;20051;-76
2023/04/30 07:40:11;;;;;;;10.52;3.20;;;9.70;99.90;;;9.60;67.87;101659.06;5080852;28;20056;-76
2023/04/30 07:42:41;;;;;;;10.68;2.92;;;9.90;99.90;;;9.62;65.85;101655.13;5070589;28;20398;-75
2023/04/30 07:45:07;;;;;;;13.00;3.20;;;9.90;99.90;;;9.72;64.95;101638.53;5082649;28;20487;-76
2023/04/30 07:47:33;;;;;;;8.43;3.05;;;10.10;99.90;;;9.99;64.78;101654.41;5058387;28;20040;-76
2023/04/30 07:49:59;;;;;;;13.02;3.17;;;10.20;99.90;;;9.68;61.82;101649.97;5090199;28;20353;-76
2023/04/30 07:52:25;;;;;;;11.43;3.33;;;10.10;99.90;;;8.86;61.96;101644.22;5090304;28;20039;-75
2023/04/30 07:54:50;;;;;;;8.57;3.03;;;9.70;99.90;;;9.30;62.41;101643.53;5077127;28;20097;-75
2023/04/30 07:57:16;;;;;;;14.43;3.65;;;9.60;99.90;;;9.76;66.88;101660.78;5085619;28;20043;-76
2023/04/30 07:59:42;;;;;;;11.35;3.38;;;10.00;99.90;;;10.19;67.97;101662.84;5061803;28;20052;-76
2023/04/30 08:02:08;;;;;;;13.02;3.30;;;10.30;99.90;;;10.60;65.56;101653.28;5063321;28;20067;-76
2023/04/30 08:04:34;;;;;;;10.48;3.40;;;10.70;99.90;;;10.90;61.29;101645.84;5081135;28;20044;-76
2023/04/30 08:07:00;;;;;;;7.03;3.03;;;11.00;99.90;;;10.92;59.73;101648.41;5089131;28;20036;-76
2023/04/30 08:09:26;;;;;;;10.50;3.45;;;11.10;99.90;;;10.37;57.73;101616.09;5059008;28;20125;-76
2023/04/30 08:11:52;;;;;;;9.63;2.88;;;10.90;99.90;;;10.40;59.07;101643.00;5083368;28;20578;-76
2023/04/30 08:14:20;;;;;;;11.90;3.15;;;10.80;99.90;;;10.34;58.08;101641.00;5081474;28;20165;-76
2023/04/30 08:16:45;;;;;;;10.57;2.85;;;10.70;99.90;;;10.24;56.80;101638.59;5079254;28;20039;-75
2023/04/30 08:19:11;;;;;;;10.13;2.88;;;10.60;99.90;;;10.05;57.04;101634.53;5089913;28;20040;-75
2023/04/30 08:21:38;;;;;;;10.00;3.25;;;10.50;99.90;;;10.27;59.26;101657.31;5054624;28;20078;-75
2023/04/30 08:24:06;;;;;;;9.23;2.80;;;10.40;99.90;;;10.12;58.67;101651.00;5064974;28;20028;-78
2023/04/30 08:26:32;;;;;;;8.65;2.95;;;10.40;99.90;;;10.17;59.20;101646.69;5091348;28;20040;-75
2023/04/30 08:28:57;;;;;;;10.85;3.08;;;10.40;99.90;;;10.37;57.67;101651.56;5085798;28;20044;-75
2023/04/30 08:31:23;;;;;;;11.80;3.08;;;10.40;99.90;;;10.17;56.91;101643.09;5081631;28;20652;-75
2023/04/30 08:33:49;;;;;;;8.68;2.80;;;10.40;99.90;;;9.69;57.36;101632.59;5061057;28;20047;-76
2023/04/30 08:36:14;;;;;;;11.35;2.83;;;10.20;99.90;;;10.21;58.05;101647.13;5092087;28;20044;-75
2023/04/30 08:38:40;;;;;;;11.70;3.05;;;10.40;99.90;;;10.38;54.77;101625.97;5075348;28;20103;-75
2023/04/30 08:41:14;;;;;;;11.52;3.30;;;10.50;99.90;;;10.77;56.80;101643.00;5074578;28;20475;-75
2023/04/30 08:43:43;;;;;;;7.22;3.15;;;10.70;99.90;;;11.18;54.33;101623.22;5093451;28;20036;-75
2023/04/30 08:46:10;;;;;;;10.98;3.45;;;11.00;99.90;;;10.58;53.92;101619.91;5082057;28;20472;-75
2023/04/30 08:48:36;;;;;;;11.13;3.33;;;10.80;99.10;;;11.00;56.91;101642.81;5055858;28;20045;-75
2023/04/30 08:51:03;;;;;;;9.32;3.10;;;10.80;99.90;;;11.29;54.82;101623.75;5076887;28;20119;-75
2023/04/30 08:53:33;;;;;;;8.80;2.80;;;11.10;99.90;;;11.62;54.17;101617.66;5060452;28;20086;-74
2023/04/30 08:55:59;;;;;;;9.70;2.88;;;11.30;99.90;;;11.46;52.45;101607.91;5090121;28;20085;-76
2023/04/30 08:58:24;;;;;;;8.80;3.03;;;11.50;98.60;;;10.63;53.82;101603.81;5075258;28;20438;-74
2023/04/30 09:00:50;;;;;;;9.52;3.60;;;11.10;99.10;;;10.97;51.72;101595.94;5090767;28;20040;-74
2023/04/30 09:03:16;;;;;;;9.75;3.03;;;11.00;97.60;;;11.14;52.21;101602.81;5071563;28;20051;-75
2023/04/30 09:05:41;;;;;;;13.60;3.30;;;11.20;98.30;;;11.40;53.99;101611.41;5085633;28;20375;-75
2023/04/30 09:08:08;;;;;;;10.15;3.10;;;11.30;99.90;;;11.88;53.07;101610.69;5087237;28;20071;-75
2023/04/30 09:10:34;;;;;;;12.27;3.00;;;11.60;99.40;;;12.18;49.19;101600.31;5083959;28;20430;-74
2023/04/30 09:13:08;;;;;;;13.52;3.00;;;11.90;96.40;;;12.40;50.19;101608.38;5059107;28;20511;-75
2023/04/30 09:15:38;;;;;;;9.55;2.97;;;12.10;97.40;;;12.21;48.51;101599.94;5089068;28;20455;-76
2023/04/30 09:18:17;;;;;;;7.45;2.75;;;12.20;94.70;;;12.18;47.08;101592.09;5092766;28;20028;-74
2023/04/30 09:21:01;;;;;;;10.88;2.78;;;12.10;93.30;;;12.44;48.99;101606.94;5092720;28;20058;-75
2023/04/30 09:23:28;;;;;;;7.45;2.40;;;12.10;95.20;;;11.86;47.19;101601.84;5088244;28;20040;-75
2023/04/30 09:25:55;;;;;;;7.35;2.70;;;12.00;92.40;;;11.34;48.55;101602.13;5090655;28;20066;-76
2023/04/30 09:28:24;;;;;;;10.00;2.60;;;11.80;93.10;;;10.37;50.28;101607.91;5083480;28;20044;-76
2023/04/30 09:30:50;;;;;;;9.50;3.03;;;11.20;93.40;;;10.54;50.90;101613.16;5081271;28;20028;-75
2023/04/30 09:33:17;;;;;;;8.48;2.25;;;11.00;94.40;;;11.28;49.72;101614.69;5087428;28;20060;-75
2023/04/30 09:35:44;;;;;;;10.23;2.30;;;11.30;94.40;;;12.09;48.74;101598.81;5067607;28;20040;-75
2023/04/30 09:38:31;;;;;;;9.63;2.20;;;11.90;94.30;;;12.87;47.80;101600.31;5057056;28;20506;-75
2023/04/30 09:41:01;;;;;;;7.28;2.30;;;12.50;93.70;;;11.85;46.83;101591.94;5089872;28;20047;-74
2023/04/30 09:43:30;;;;;;;8.38;2.70;;;12.20;91.00;;;11.26;47.26;101584.00;5063711;28;20040;-76
2023/04/30 09:45:58;;;;;;;10.60;2.78;;;11.90;90.80;;;12.31;47.82;101594.03;5082249;28;20039;-75
2023/04/30 09:48:26;;;;;;;;;;;12.20;92.50;;;13.03;50.33;101599.03;5086530;28;20105;-74
2023/04/30 09:50:53;;;;;;;8.50;2.42;;;12.70;95.30;;;13.22;45.96;101563.63;5082861;28;19916;-75
2023/04/30 09:53:19;;;;;;;10.60;2.65;;;13.10;91.00;;;13.65;44.41;101565.91;5086795;28;20075;-76
2023/04/30 09:55:48;;;;;;;10.15;3.08;;;13.40;90.20;;;13.67;45.38;101582.16;5092419;28;20028;-76
2023/04/30 09:58:16;;;;;;;9.75;2.40;;;13.60;90.60;;;14.19;44.18;101584.03;5061392;28;20025;-76
2023/04/30 10:00:44;;;;;;;8.15;2.22;;;13.90;90.00;;;13.63;42.20;101567.16;5086447;28;20441;-75
2023/04/30 10:03:13;;;;;;;7.25;2.20;;;13.80;83.70;;;13.75;42.33;101557.22;5057400;28;20033;-76
2023/04/30 10:06:15;;;;;;;10.05;2.80;;;13.80;83.80;;;14.38;43.39;101563.06;5076638;28;20356;-75
2023/04/30 10:08:45;;;;;;;7.30;2.20;;;14.20;87.30;;;14.71;41.36;101559.28;5032606;28;20052;-77
2023/04/30 10:11:18;;;;;;;5.68;2.30;;;;;;;15.82;42.48;101563.31;5056290;28;20472;-76
2023/04/30 10:14:05;;;;;;;11.57;3.00;;;15.50;80.20;;;17.25;36.58;101522.47;5085482;28;20473;-76
2023/04/30 10:16:50;;;;;;;6.30;2.33;;;;;;;18.38;33.81;101518.44;5091068;28;20039;-76
2023/04/30 10:19:24;;;;;;;7.57;2.15;;;;;;;19.33;34.16;101530.78;5055672;28;20037;-77